Terminal Aerodrome Forecast
Issued by NWS Central Illinois

Home | Current Version | Previous Version | Text Only | Print | Product List | Glossary On
Versions: 1 2 3 4 5 6 7 8 9 10 11 12 13 14 15 16 17 18 19 20 21 22 23
000
FTUS43 KILX 040800 AAA
TAFPIA
TAF AMD
KPIA 040806Z 0408/0506 32015KT P6SM SCT025
     FM040900 33010G18KT P6SM SCT025 BKN120
     FM042300 33008KT P6SM BKN120=

USA.gov is the U.S. government's official web portal to all federal, state and local government web resources and services.